Aeroporto :
LOGIN :

Iscrizione | Disclaimer

   EN    FR    IT 

 










Sommario :    VFR   VFR Marginale   IFR   IFR Intensivo   IFR Molto Intensivo
Visibilità : 
Base nubi : 
>= 8 km
>= 3000ft
5 / 8 km
1000 / 3000 ft
1500m / 5 km
500 / 1000 ft
800 / 1500m
200 / 500 ft
< 800m
< 200 ft
Simboli :   Temporali  Nebbia  Neve Forte  Precipitazioni Forti  Vento > 20 kt
SIGMETs :   Varie  Temporali  Ghiacco  Turbolenza  Onda orograficha  Ceneri Vulcaniche






- Altitudine del aeroporto : 1416 ft
- Codice IATA : ZRH


LSZH - Zurich

ULTIMO METAR :
  • 041450Z VRB03KT 8000 FEW006 BKN009 02/00 Q1011 BECMG SCT012

METARs OBSOLETI :
  • 041420Z VRB02KT 6000 FEW007 BKN009 02/00 Q1011 BECMG SCT012
  • 041350Z 01003KT 6000 BKN008 02/00 Q1011 BECMG SCT012
  • 041320Z 01003KT 340V040 6000 -RA BKN006 02/01 Q1011 NOSIG
  • 041250Z VRB01KT 6000 -RA BKN006 BKN008 02/00 Q1011 NOSIG
  • 041220Z VRB01KT 6000 OVC006 02/M00 Q1011 NOSIG

TAF TAF LSZH
Valido dal 04 a 15 ore il 05 a 21 ore UTC


041425Z 0415/0521 01003KT 6000 -RA BKN006 TX03/0415Z TN01/0501Z TX04/0514Z
BECMG 0415/0417 SCT012
BECMG 0417/0420 2500 BCFG
PROB40 0420/0424 0600 PRFG BKN002
BECMG 0500/0503 7000 BKN020
TEMPO 0501/0510 3500 RA BKN014
ATIS : +41 43 816 2295 (DEP) +41 43 816 2294 (ARR)



MetMap, La meteo Aeronautica in un colpo d'occhio ! - Copyright ORBIFLY Dicembre 2007 - Disclaimer

ORBIFLY MET'MAP TEAM :

Programmazione e sviluppo : Alexandra Zaïnal
Concezione : Baudouin d'Aumeries
Supporto tecnico e logistico : Manuel Goepfert
Aiuto : Marc-Olivier Méhu
Aiuto per la traduzione : Arnaldo La Scala




FONTI E CREDITI :

   NOAA